Terminal Aerodrome Forecast
Issued by NWS San Angelo, TX

Current Version | Previous Version | Text Only | Print | Product List | Glossary Off
Versions: 1 2 3 4 5 6 7 8 9 10 11 12 13 14 15 16

000
FTUS44 KSJT 190500
TAFABI
TAF
KABI 190534Z 1906/2006 04007KT P6SM OVC009
     FM190800 03006KT 6SM BR VCSH OVC007
     FM191200 02006KT 3SM BR OVC005
     FM191600 02005KT P6SM OVC015
     FM192000 03006KT P6SM BKN025
     FM192200 VRB05KT P6SM SCT025=

USA.gov is the U.S. government's official web portal to all federal, state and local government web resources and services.